Portada
METAR-TAF:

METAR-TAF

Aeroports :

Biàrritz, França

latitud: 43-28N, longitud: 001-32W, altitud: 75 m

Observació

L'informe es va fer fa 34 minuts, a les 07:00 UTC
Vent 3 kt amb direcció variable
Temperatura 20°C
Humitat 73%
Pressió 1018 hPa
Visibilitat 10 km o més
sense núvols per sota de 1500 mi sense presència de cumulonimbus.

METAR: LFBZ 250700Z AUTO VRB03KT CAVOK 20/15 Q1018 NOSIG

Hora: 09:34 (07:34 UTC)

Pronòstic

L'informe es va fer fa 2 hores i 34 minuts, a les 05:00 UTC
Pronòstic vàlid del 25 a les 06 UTC al 26 a les 06 UTC
Vent 5 kt del Est
Visibilitat 10 km o més
sense núvols per sota de 1500 mi sense presència de cumulonimbus.
Evolucionant progressivament
l' 25 a les 10 UTC al 25 a les 12 UTC
Vent 10 kt del Nord
Temporalment
l' 26 a les 02 UTC al 26 a les 06 UTC
Vent 2 kt amb direcció variable

TAF: LFBZ 250500Z 2506/2606 10005KT CAVOK BECMG 2510/2512 35010KT TEMPO 2602/2606 VRB02KT

Observacions i pronòstics meteorològics de més de 4000 aeroports (METAR i TAF).

Les estacions disponibles són els punts grocs i vermells al mapa.

Posi el ratolí al punt desitjat per veure el nom de l'estació.

Feu clic per veure les observacions i els pronòstics meteorològics.

Per canviar el mapa: feu clic els botons verds amb una creu de color negre per apropar; al botó verd amb un guió per allunyar la imatge; o en les fletxes verdes per a mapes adjacents.


METAR-TAF: